sensor_id;sensor_type;location;lat;lon;timestamp;pressure;altitude;pressure_sealevel;temperature;humidity
61128;BME280;47013;42.664;23.242;2023-04-15T00:00:26;93278.41;;;7.87;95.33
61128;BME280;47013;42.664;23.242;2023-04-15T00:02:52;93284.16;;;7.89;95.74
61128;BME280;47013;42.664;23.242;2023-04-15T00:05:18;93281.06;;;7.90;94.63
61128;BME280;47013;42.664;23.242;2023-04-15T00:07:43;93287.56;;;7.96;91.98
61128;BME280;47013;42.664;23.242;2023-04-15T00:10:10;93288.47;;;7.83;90.75
61128;BME280;47013;42.664;23.242;2023-04-15T00:12:36;93284.69;;;7.77;94.70
61128;BME280;47013;42.664;23.242;2023-04-15T00:15:01;93286.13;;;7.85;96.31
61128;BME280;47013;42.664;23.242;2023-04-15T00:17:27;93285.28;;;7.57;96.81
61128;BME280;47013;42.664;23.242;2023-04-15T00:19:52;93286.47;;;7.56;96.79
61128;BME280;47013;42.664;23.242;2023-04-15T00:22:21;93284.78;;;7.69;97.51
61128;BME280;47013;42.664;23.242;2023-04-15T00:24:49;93281.22;;;7.76;97.29
61128;BME280;47013;42.664;23.242;2023-04-15T00:27:14;93284.63;;;7.84;96.56
61128;BME280;47013;42.664;23.242;2023-04-15T00:29:40;93286.91;;;7.85;94.63
61128;BME280;47013;42.664;23.242;2023-04-15T00:32:05;93286.81;;;7.92;95.39
61128;BME280;47013;42.664;23.242;2023-04-15T00:34:31;93289.06;;;7.97;94.92
61128;BME280;47013;42.664;23.242;2023-04-15T00:36:56;93278.59;;;8.03;94.17
61128;BME280;47013;42.664;23.242;2023-04-15T00:39:21;93281.28;;;8.03;95.06
61128;BME280;47013;42.664;23.242;2023-04-15T00:41:47;93270.25;;;7.90;93.52
61128;BME280;47013;42.664;23.242;2023-04-15T00:44:13;93273.47;;;7.82;94.04
61128;BME280;47013;42.664;23.242;2023-04-15T00:46:38;93263.72;;;7.88;95.32
61128;BME280;47013;42.664;23.242;2023-04-15T00:49:04;93260.63;;;7.89;94.73
61128;BME280;47013;42.664;23.242;2023-04-15T00:51:30;93262.44;;;7.99;93.87
61128;BME280;47013;42.664;23.242;2023-04-15T00:53:57;93265.50;;;8.02;92.01
61128;BME280;47013;42.664;23.242;2023-04-15T00:56:23;93267.13;;;7.95;89.75
61128;BME280;47013;42.664;23.242;2023-04-15T00:58:48;93262.97;;;7.87;90.84
61128;BME280;47013;42.664;23.242;2023-04-15T01:01:14;93267.13;;;7.61;91.03
61128;BME280;47013;42.664;23.242;2023-04-15T01:03:40;93275.16;;;7.65;95.26
61128;BME280;47013;42.664;23.242;2023-04-15T01:06:05;93285.19;;;7.64;97.03
61128;BME280;47013;42.664;23.242;2023-04-15T01:08:31;93289.31;;;7.76;99.08
61128;BME280;47013;42.664;23.242;2023-04-15T01:10:57;93292.38;;;7.78;94.71
61128;BME280;47013;42.664;23.242;2023-04-15T01:13:23;93296.13;;;7.88;96.11
61128;BME280;47013;42.664;23.242;2023-04-15T01:15:48;93303.75;;;7.93;95.87
61128;BME280;47013;42.664;23.242;2023-04-15T01:18:14;93302.22;;;7.95;95.06
61128;BME280;47013;42.664;23.242;2023-04-15T01:20:42;93294.47;;;7.97;94.64
61128;BME280;47013;42.664;23.242;2023-04-15T01:23:08;93292.19;;;7.92;94.97
61128;BME280;47013;42.664;23.242;2023-04-15T01:25:33;93291.09;;;7.90;92.14
61128;BME280;47013;42.664;23.242;2023-04-15T01:27:59;93291.84;;;7.90;93.48
61128;BME280;47013;42.664;23.242;2023-04-15T01:30:24;93291.84;;;7.90;92.69
61128;BME280;47013;42.664;23.242;2023-04-15T01:32:51;93276.09;;;7.85;91.52
61128;BME280;47013;42.664;23.242;2023-04-15T01:35:16;93291.13;;;7.86;91.54
61128;BME280;47013;42.664;23.242;2023-04-15T01:37:42;93286.19;;;7.81;92.33
61128;BME280;47013;42.664;23.242;2023-04-15T01:40:07;93288.25;;;7.70;92.19
61128;BME280;47013;42.664;23.242;2023-04-15T01:42:34;93285.66;;;7.59;90.86
61128;BME280;47013;42.664;23.242;2023-04-15T01:44:59;93283.66;;;7.63;91.61
61128;BME280;47013;42.664;23.242;2023-04-15T01:47:24;93284.03;;;7.65;91.43
61128;BME280;47013;42.664;23.242;2023-04-15T01:49:50;93287.72;;;7.45;90.37
61128;BME280;47013;42.664;23.242;2023-04-15T01:52:15;93283.66;;;7.26;91.58
61128;BME280;47013;42.664;23.242;2023-04-15T01:54:40;93287.69;;;7.07;94.14
61128;BME280;47013;42.664;23.242;2023-04-15T01:57:06;93292.28;;;6.58;97.95
61128;BME280;47013;42.664;23.242;2023-04-15T01:59:31;93294.78;;;6.31;100.00
61128;BME280;47013;42.664;23.242;2023-04-15T02:01:57;93302.06;;;6.34;100.00
61128;BME280;47013;42.664;23.242;2023-04-15T02:04:22;93302.34;;;6.50;100.00
61128;BME280;47013;42.664;23.242;2023-04-15T02:06:47;93303.03;;;6.65;100.00
61128;BME280;47013;42.664;23.242;2023-04-15T02:09:12;93302.94;;;6.79;100.00
61128;BME280;47013;42.664;23.242;2023-04-15T02:11:38;93295.16;;;6.89;99.18
61128;BME280;47013;42.664;23.242;2023-04-15T02:14:03;93300.50;;;6.96;99.32
61128;BME280;47013;42.664;23.242;2023-04-15T02:16:29;93297.75;;;6.99;97.56
61128;BME280;47013;42.664;23.242;2023-04-15T02:18:55;93298.94;;;6.98;96.06
61128;BME280;47013;42.664;23.242;2023-04-15T02:21:20;93289.28;;;7.01;96.25
61128;BME280;47013;42.664;23.242;2023-04-15T02:23:45;93287.72;;;7.03;95.72
61128;BME280;47013;42.664;23.242;2023-04-15T02:26:12;93291.97;;;7.01;94.03
61128;BME280;47013;42.664;23.242;2023-04-15T02:28:37;93293.91;;;7.00;93.67
61128;BME280;47013;42.664;23.242;2023-04-15T02:31:06;93288.94;;;6.95;92.37
61128;BME280;47013;42.664;23.242;2023-04-15T02:33:32;93295.53;;;6.87;92.42
61128;BME280;47013;42.664;23.242;2023-04-15T02:35:57;93286.69;;;6.87;93.21
61128;BME280;47013;42.664;23.242;2023-04-15T02:38:23;93291.38;;;6.79;92.89
61128;BME280;47013;42.664;23.242;2023-04-15T02:40:48;93294.19;;;6.65;93.79
61128;BME280;47013;42.664;23.242;2023-04-15T02:43:14;93293.09;;;6.55;94.73
61128;BME280;47013;42.664;23.242;2023-04-15T02:45:41;93296.13;;;6.61;94.94
61128;BME280;47013;42.664;23.242;2023-04-15T02:48:07;93301.09;;;6.62;94.71
61128;BME280;47013;42.664;23.242;2023-04-15T02:50:32;93294.97;;;6.62;94.16
61128;BME280;47013;42.664;23.242;2023-04-15T02:52:58;93288.81;;;6.65;93.52
61128;BME280;47013;42.664;23.242;2023-04-15T02:55:25;93302.28;;;6.61;92.74
61128;BME280;47013;42.664;23.242;2023-04-15T02:57:50;93293.50;;;6.54;92.09
61128;BME280;47013;42.664;23.242;2023-04-15T03:00:16;93307.34;;;6.52;92.89
61128;BME280;47013;42.664;23.242;2023-04-15T03:02:41;93312.03;;;6.41;93.92
61128;BME280;47013;42.664;23.242;2023-04-15T03:05:10;93311.59;;;6.46;93.53
61128;BME280;47013;42.664;23.242;2023-04-15T03:07:35;93309.69;;;6.46;92.47
61128;BME280;47013;42.664;23.242;2023-04-15T03:10:01;93310.13;;;6.34;92.96
61128;BME280;47013;42.664;23.242;2023-04-15T03:12:26;93310.22;;;6.20;94.12
61128;BME280;47013;42.664;23.242;2023-04-15T03:14:52;93301.75;;;6.25;94.33
61128;BME280;47013;42.664;23.242;2023-04-15T03:17:17;93307.97;;;6.04;95.07
61128;BME280;47013;42.664;23.242;2023-04-15T03:19:43;93313.38;;;6.04;97.02
61128;BME280;47013;42.664;23.242;2023-04-15T03:22:08;93312.56;;;6.07;97.19
61128;BME280;47013;42.664;23.242;2023-04-15T03:24:33;93316.00;;;6.15;96.51
61128;BME280;47013;42.664;23.242;2023-04-15T03:27:01;93321.75;;;6.20;94.91
61128;BME280;47013;42.664;23.242;2023-04-15T03:29:27;93329.81;;;6.20;94.56
61128;BME280;47013;42.664;23.242;2023-04-15T03:31:52;93335.19;;;6.20;94.17
61128;BME280;47013;42.664;23.242;2023-04-15T03:34:18;93334.41;;;6.24;93.79
61128;BME280;47013;42.664;23.242;2023-04-15T03:36:43;93331.72;;;6.27;94.06
61128;BME280;47013;42.664;23.242;2023-04-15T03:39:08;93343.22;;;6.31;93.30
61128;BME280;47013;42.664;23.242;2023-04-15T03:41:33;93345.53;;;6.33;92.67
61128;BME280;47013;42.664;23.242;2023-04-15T03:43:59;93347.81;;;6.34;93.26
61128;BME280;47013;42.664;23.242;2023-04-15T03:46:24;93356.66;;;6.35;93.69
61128;BME280;47013;42.664;23.242;2023-04-15T03:48:49;93358.97;;;6.36;93.23
61128;BME280;47013;42.664;23.242;2023-04-15T03:51:15;93358.19;;;6.36;93.39
61128;BME280;47013;42.664;23.242;2023-04-15T03:53:40;93367.06;;;6.33;92.07
61128;BME280;47013;42.664;23.242;2023-04-15T03:56:05;93363.59;;;6.32;91.92
61128;BME280;47013;42.664;23.242;2023-04-15T03:58:31;93364.00;;;6.31;91.42
61128;BME280;47013;42.664;23.242;2023-04-15T04:00:56;93370.94;;;6.28;91.80
61128;BME280;47013;42.664;23.242;2023-04-15T04:03:21;93372.50;;;6.26;91.50
61128;BME280;47013;42.664;23.242;2023-04-15T04:05:46;93377.50;;;6.27;92.87
61128;BME280;47013;42.664;23.242;2023-04-15T04:08:12;93379.78;;;6.29;92.65
61128;BME280;47013;42.664;23.242;2023-04-15T04:10:38;93376.72;;;6.27;93.02
61128;BME280;47013;42.664;23.242;2023-04-15T04:13:03;93376.31;;;6.25;92.50
61128;BME280;47013;42.664;23.242;2023-04-15T04:15:28;93374.78;;;6.24;92.75
61128;BME280;47013;42.664;23.242;2023-04-15T04:17:54;93375.56;;;6.24;93.18
61128;BME280;47013;42.664;23.242;2023-04-15T04:20:19;93381.72;;;6.25;93.15
61128;BME280;47013;42.664;23.242;2023-04-15T04:22:45;93369.81;;;6.26;93.13
61128;BME280;47013;42.664;23.242;2023-04-15T04:25:10;93369.81;;;6.26;93.23
61128;BME280;47013;42.664;23.242;2023-04-15T04:27:35;93372.09;;;6.27;93.54
61128;BME280;47013;42.664;23.242;2023-04-15T04:30:01;93365.53;;;6.32;94.11
61128;BME280;47013;42.664;23.242;2023-04-15T04:32:26;93372.81;;;6.35;94.57
61128;BME280;47013;42.664;23.242;2023-04-15T04:34:51;93360.13;;;6.39;94.97
61128;BME280;47013;42.664;23.242;2023-04-15T04:37:17;93366.63;;;6.45;95.72
61128;BME280;47013;42.664;23.242;2023-04-15T04:39:42;93368.53;;;6.52;96.01
61128;BME280;47013;42.664;23.242;2023-04-15T04:42:07;93370.00;;;6.60;96.22
61128;BME280;47013;42.664;23.242;2023-04-15T04:44:32;93371.16;;;6.59;96.88
61128;BME280;47013;42.664;23.242;2023-04-15T04:46:58;93372.69;;;6.60;97.44
61128;BME280;47013;42.664;23.242;2023-04-15T04:49:23;93373.81;;;6.69;98.17
61128;BME280;47013;42.664;23.242;2023-04-15T04:51:48;93382.19;;;6.82;98.30
61128;BME280;47013;42.664;23.242;2023-04-15T04:54:14;93382.13;;;6.93;99.59
61128;BME280;47013;42.664;23.242;2023-04-15T04:56:39;93387.06;;;7.05;99.88
61128;BME280;47013;42.664;23.242;2023-04-15T04:59:05;93380.84;;;7.12;98.29
61128;BME280;47013;42.664;23.242;2023-04-15T05:01:31;93391.56;;;7.22;96.19
61128;BME280;47013;42.664;23.242;2023-04-15T05:03:56;93396.50;;;7.31;92.26
61128;BME280;47013;42.664;23.242;2023-04-15T05:06:21;93392.91;;;7.45;91.13
61128;BME280;47013;42.664;23.242;2023-04-15T05:08:47;93397.44;;;7.55;91.22
61128;BME280;47013;42.664;23.242;2023-04-15T05:11:12;93407.06;;;7.59;86.46
61128;BME280;47013;42.664;23.242;2023-04-15T05:13:37;93405.53;;;7.55;85.68
61128;BME280;47013;42.664;23.242;2023-04-15T05:16:06;93425.78;;;7.29;85.86
61128;BME280;47013;42.664;23.242;2023-04-15T05:18:31;93425.69;;;7.43;86.24
61128;BME280;47013;42.664;23.242;2023-04-15T05:20:57;93424.06;;;7.53;85.95
61128;BME280;47013;42.664;23.242;2023-04-15T05:23:22;93429.31;;;7.71;86.12
61128;BME280;47013;42.664;23.242;2023-04-15T05:25:47;93426.75;;;7.56;84.92
61128;BME280;47013;42.664;23.242;2023-04-15T05:28:13;93426.31;;;7.61;85.35
61128;BME280;47013;42.664;23.242;2023-04-15T05:30:38;93424.34;;;7.65;84.61
61128;BME280;47013;42.664;23.242;2023-04-15T05:33:04;93415.41;;;7.72;84.30
61128;BME280;47013;42.664;23.242;2023-04-15T05:35:29;93419.69;;;7.69;84.82
61128;BME280;47013;42.664;23.242;2023-04-15T05:37:55;93416.81;;;7.87;85.39
61128;BME280;47013;42.664;23.242;2023-04-15T05:40:20;93422.94;;;7.95;84.01
61128;BME280;47013;42.664;23.242;2023-04-15T05:42:46;93426.66;;;8.08;83.66
61128;BME280;47013;42.664;23.242;2023-04-15T05:45:11;93429.16;;;8.26;83.14
61128;BME280;47013;42.664;23.242;2023-04-15T05:47:37;93427.44;;;8.46;81.77
61128;BME280;47013;42.664;23.242;2023-04-15T05:50:03;93421.84;;;8.61;80.49
61128;BME280;47013;42.664;23.242;2023-04-15T05:52:29;93435.06;;;8.82;79.28
61128;BME280;47013;42.664;23.242;2023-04-15T05:54:54;93426.63;;;9.07;78.53
61128;BME280;47013;42.664;23.242;2023-04-15T05:57:20;93427.00;;;9.09;77.25
61128;BME280;47013;42.664;23.242;2023-04-15T05:59:45;93429.25;;;9.14;78.16
61128;BME280;47013;42.664;23.242;2023-04-15T06:02:11;93435.06;;;9.12;78.76
61128;BME280;47013;42.664;23.242;2023-04-15T06:04:36;93434.25;;;9.15;69.72
61128;BME280;47013;42.664;23.242;2023-04-15T06:07:01;93426.41;;;9.48;74.54
61128;BME280;47013;42.664;23.242;2023-04-15T06:09:26;93427.50;;;9.54;73.79
61128;BME280;47013;42.664;23.242;2023-04-15T06:11:53;93432.16;;;9.77;75.07
61128;BME280;47013;42.664;23.242;2023-04-15T06:14:18;93433.50;;;9.89;72.35
61128;BME280;47013;42.664;23.242;2023-04-15T06:16:43;93434.31;;;10.09;73.98
61128;BME280;47013;42.664;23.242;2023-04-15T06:19:08;93441.91;;;10.18;72.43
61128;BME280;47013;42.664;23.242;2023-04-15T06:21:34;93445.78;;;10.40;71.87
61128;BME280;47013;42.664;23.242;2023-04-15T06:23:59;93446.47;;;10.64;69.79
61128;BME280;47013;42.664;23.242;2023-04-15T06:26:27;93466.56;;;10.67;69.97
61128;BME280;47013;42.664;23.242;2023-04-15T06:28:53;93459.19;;;10.47;69.10
61128;BME280;47013;42.664;23.242;2023-04-15T06:31:18;93456.72;;;9.90;69.76
61128;BME280;47013;42.664;23.242;2023-04-15T06:33:43;93473.91;;;10.03;69.67
61128;BME280;47013;42.664;23.242;2023-04-15T06:36:09;93469.97;;;10.31;70.08
61128;BME280;47013;42.664;23.242;2023-04-15T06:38:34;93478.72;;;10.39;68.45
61128;BME280;47013;42.664;23.242;2023-04-15T06:40:59;93480.34;;;10.56;67.90
61128;BME280;47013;42.664;23.242;2023-04-15T06:43:24;93479.78;;;10.64;68.48
61128;BME280;47013;42.664;23.242;2023-04-15T06:45:50;93494.53;;;10.83;66.34
61128;BME280;47013;42.664;23.242;2023-04-15T06:48:15;93483.41;;;10.98;66.55
61128;BME280;47013;42.664;23.242;2023-04-15T06:50:41;93487.44;;;10.89;63.50
61128;BME280;47013;42.664;23.242;2023-04-15T06:53:06;93485.69;;;10.99;67.85
61128;BME280;47013;42.664;23.242;2023-04-15T06:55:32;93483.38;;;11.17;65.86
61128;BME280;47013;42.664;23.242;2023-04-15T06:57:58;93472.81;;;11.23;63.70
61128;BME280;47013;42.664;23.242;2023-04-15T07:00:23;93483.75;;;11.00;56.24
61128;BME280;47013;42.664;23.242;2023-04-15T07:02:49;93478.94;;;11.07;56.11
61128;BME280;47013;42.664;23.242;2023-04-15T07:05:15;93470.47;;;10.85;55.96
61128;BME280;47013;42.664;23.242;2023-04-15T07:07:40;93480.91;;;10.87;56.53
61128;BME280;47013;42.664;23.242;2023-04-15T07:10:06;93485.69;;;10.99;54.35
61128;BME280;47013;42.664;23.242;2023-04-15T07:12:31;93478.47;;;11.29;55.19
61128;BME280;47013;42.664;23.242;2023-04-15T07:14:59;93490.41;;;11.51;53.50
61128;BME280;47013;42.664;23.242;2023-04-15T07:17:24;93484.81;;;11.58;53.15
61128;BME280;47013;42.664;23.242;2023-04-15T07:19:50;93485.25;;;11.57;52.86
61128;BME280;47013;42.664;23.242;2023-04-15T07:22:15;93492.38;;;11.50;52.07
61128;BME280;47013;42.664;23.242;2023-04-15T07:24:41;93487.47;;;11.78;50.96
61128;BME280;47013;42.664;23.242;2023-04-15T07:27:06;93484.38;;;12.12;51.54
61128;BME280;47013;42.664;23.242;2023-04-15T07:29:32;93481.53;;;12.32;50.76
61128;BME280;47013;42.664;23.242;2023-04-15T07:31:57;93488.84;;;12.35;51.16
61128;BME280;47013;42.664;23.242;2023-04-15T07:34:22;93468.88;;;12.42;50.51
61128;BME280;47013;42.664;23.242;2023-04-15T07:36:48;93478.38;;;12.33;51.03
61128;BME280;47013;42.664;23.242;2023-04-15T07:39:15;93476.25;;;12.41;51.81
61128;BME280;47013;42.664;23.242;2023-04-15T07:41:41;93465.69;;;12.59;51.39
61128;BME280;47013;42.664;23.242;2023-04-15T07:44:06;93467.31;;;12.57;49.82
61128;BME280;47013;42.664;23.242;2023-04-15T07:46:32;93478.88;;;12.74;49.72
61128;BME280;47013;42.664;23.242;2023-04-15T07:48:57;93479.91;;;12.80;49.44
61128;BME280;47013;42.664;23.242;2023-04-15T07:51:22;93485.13;;;12.87;49.61
61128;BME280;47013;42.664;23.242;2023-04-15T07:53:48;93483.38;;;13.09;50.15
61128;BME280;47013;42.664;23.242;2023-04-15T07:56:13;93484.84;;;13.26;48.97
61128;BME280;47013;42.664;23.242;2023-04-15T07:58:41;93488.53;;;12.91;44.25
61128;BME280;47013;42.664;23.242;2023-04-15T08:01:07;93497.97;;;13.15;45.64
61128;BME280;47013;42.664;23.242;2023-04-15T08:03:32;93499.59;;;12.84;40.56
61128;BME280;47013;42.664;23.242;2023-04-15T08:05:58;93494.97;;;13.26;42.99
61128;BME280;47013;42.664;23.242;2023-04-15T08:08:23;93487.38;;;13.59;45.73
61128;BME280;47013;42.664;23.242;2023-04-15T08:10:49;93489.88;;;13.92;44.46
61128;BME280;47013;42.664;23.242;2023-04-15T08:13:14;93493.47;;;14.14;42.08
61128;BME280;47013;42.664;23.242;2023-04-15T08:15:40;93496.50;;;14.29;42.59
61128;BME280;47013;42.664;23.242;2023-04-15T08:18:06;93497.47;;;14.48;44.03
61128;BME280;47013;42.664;23.242;2023-04-15T08:20:31;93501.91;;;14.54;44.95
61128;BME280;47013;42.664;23.242;2023-04-15T08:22:56;93498.75;;;14.56;45.19
61128;BME280;47013;42.664;23.242;2023-04-15T08:25:22;93502.25;;;14.43;45.56
61128;BME280;47013;42.664;23.242;2023-04-15T08:27:47;93493.03;;;14.15;45.98
61128;BME280;47013;42.664;23.242;2023-04-15T08:30:12;93499.47;;;14.22;44.75
61128;BME280;47013;42.664;23.242;2023-04-15T08:32:38;93504.38;;;14.14;45.13
61128;BME280;47013;42.664;23.242;2023-04-15T08:35:03;93495.59;;;14.32;43.47
61128;BME280;47013;42.664;23.242;2023-04-15T08:37:32;93498.13;;;14.26;44.62
61128;BME280;47013;42.664;23.242;2023-04-15T08:39:57;93488.25;;;14.20;42.86
61128;BME280;47013;42.664;23.242;2023-04-15T08:42:22;93490.44;;;13.61;40.97
61128;BME280;47013;42.664;23.242;2023-04-15T08:44:51;93490.31;;;13.90;41.10
61128;BME280;47013;42.664;23.242;2023-04-15T08:47:17;93487.59;;;14.03;42.00
61128;BME280;47013;42.664;23.242;2023-04-15T08:49:47;93488.09;;;14.49;41.40
61128;BME280;47013;42.664;23.242;2023-04-15T08:52:17;93474.84;;;14.60;39.00
61128;BME280;47013;42.664;23.242;2023-04-15T08:54:43;93481.69;;;14.64;39.12
61128;BME280;47013;42.664;23.242;2023-04-15T08:57:09;93479.47;;;14.50;38.91
61128;BME280;47013;42.664;23.242;2023-04-15T08:59:34;93486.94;;;14.93;40.49
61128;BME280;47013;42.664;23.242;2023-04-15T09:01:59;93488.31;;;15.20;39.78
61128;BME280;47013;42.664;23.242;2023-04-15T09:04:28;93476.94;;;15.43;37.70
61128;BME280;47013;42.664;23.242;2023-04-15T09:06:53;93482.41;;;15.65;39.07
61128;BME280;47013;42.664;23.242;2023-04-15T09:09:19;93479.53;;;15.47;38.10
61128;BME280;47013;42.664;23.242;2023-04-15T09:11:44;93475.88;;;15.41;36.69
61128;BME280;47013;42.664;23.242;2023-04-15T09:14:09;93459.94;;;15.48;38.70
61128;BME280;47013;42.664;23.242;2023-04-15T09:19:20;93463.28;;;15.65;35.47
61128;BME280;47013;42.664;23.242;2023-04-15T09:21:46;93458.25;;;16.04;35.74
61128;BME280;47013;42.664;23.242;2023-04-15T09:24:11;93457.06;;;15.74;33.72
61128;BME280;47013;42.664;23.242;2023-04-15T09:26:37;93457.19;;;15.39;34.45
61128;BME280;47013;42.664;23.242;2023-04-15T09:29:07;93452.34;;;15.43;34.20
61128;BME280;47013;42.664;23.242;2023-04-15T09:31:33;93457.41;;;15.85;34.44
61128;BME280;47013;42.664;23.242;2023-04-15T09:33:58;93468.22;;;15.35;34.70
61128;BME280;47013;42.664;23.242;2023-04-15T09:36:24;93463.13;;;15.16;35.29
61128;BME280;47013;42.664;23.242;2023-04-15T09:38:59;93456.72;;;15.62;35.09
61128;BME280;47013;42.664;23.242;2023-04-15T09:41:25;93451.56;;;15.12;34.28
61128;BME280;47013;42.664;23.242;2023-04-15T09:43:50;93454.91;;;15.38;33.25
61128;BME280;47013;42.664;23.242;2023-04-15T09:46:16;93452.09;;;15.50;33.56
61128;BME280;47013;42.664;23.242;2023-04-15T09:48:41;93460.72;;;15.49;33.46
61128;BME280;47013;42.664;23.242;2023-04-15T09:51:06;93470.25;;;15.44;35.37
61128;BME280;47013;42.664;23.242;2023-04-15T09:53:32;93463.25;;;14.90;33.27
61128;BME280;47013;42.664;23.242;2023-04-15T09:55:58;93471.91;;;15.11;33.97
61128;BME280;47013;42.664;23.242;2023-04-15T09:58:30;93468.50;;;14.63;33.58
61128;BME280;47013;42.664;23.242;2023-04-15T10:00:57;93470.75;;;14.77;33.65
61128;BME280;47013;42.664;23.242;2023-04-15T10:03:23;93458.31;;;14.76;31.92
61128;BME280;47013;42.664;23.242;2023-04-15T10:05:49;93475.34;;;14.67;32.75
61128;BME280;47013;42.664;23.242;2023-04-15T10:08:36;93475.75;;;14.31;33.83
61128;BME280;47013;42.664;23.242;2023-04-15T10:11:00;93468.28;;;14.57;34.64
61128;BME280;47013;42.664;23.242;2023-04-15T10:13:26;93463.22;;;14.68;34.88
61128;BME280;47013;42.664;23.242;2023-04-15T10:16:00;93457.28;;;15.04;34.05
61128;BME280;47013;42.664;23.242;2023-04-15T10:18:29;93461.28;;;15.13;32.92
61128;BME280;47013;42.664;23.242;2023-04-15T10:20:56;93453.94;;;15.31;33.81
61128;BME280;47013;42.664;23.242;2023-04-15T10:23:23;93452.81;;;15.42;33.53
61128;BME280;47013;42.664;23.242;2023-04-15T10:25:50;93445.66;;;15.75;33.53
61128;BME280;47013;42.664;23.242;2023-04-15T10:28:16;93442.31;;;16.20;33.09
61128;BME280;47013;42.664;23.242;2023-04-15T10:30:41;93439.06;;;15.95;32.92
61128;BME280;47013;42.664;23.242;2023-04-15T10:33:07;93444.78;;;16.28;34.50
61128;BME280;47013;42.664;23.242;2023-04-15T10:35:33;93440.81;;;16.29;34.48
61128;BME280;47013;42.664;23.242;2023-04-15T10:37:59;93443.84;;;16.40;34.29
61128;BME280;47013;42.664;23.242;2023-04-15T10:40:25;93439.38;;;15.97;34.83
61128;BME280;47013;42.664;23.242;2023-04-15T10:42:55;93429.91;;;15.88;34.61
61128;BME280;47013;42.664;23.242;2023-04-15T10:45:21;93430.47;;;15.74;34.31
61128;BME280;47013;42.664;23.242;2023-04-15T10:47:55;93430.19;;;15.72;33.88
61128;BME280;47013;42.664;23.242;2023-04-15T10:50:23;93430.78;;;16.16;32.29
61128;BME280;47013;42.664;23.242;2023-04-15T10:52:50;93418.94;;;16.47;34.23
61128;BME280;47013;42.664;23.242;2023-04-15T10:57:44;93436.56;;;16.64;33.74
61128;BME280;47013;42.664;23.242;2023-04-15T11:00:13;93425.34;;;16.62;34.10
61128;BME280;47013;42.664;23.242;2023-04-15T11:05:04;93429.91;;;16.56;33.72
61128;BME280;47013;42.664;23.242;2023-04-15T11:13:04;93433.63;;;16.13;34.78
61128;BME280;47013;42.664;23.242;2023-04-15T11:15:29;93433.84;;;16.28;33.94
61128;BME280;47013;42.664;23.242;2023-04-15T11:17:55;93431.06;;;16.09;32.95
61128;BME280;47013;42.664;23.242;2023-04-15T11:20:21;93427.13;;;16.38;32.44
61128;BME280;47013;42.664;23.242;2023-04-15T11:22:50;93440.50;;;16.27;31.56
61128;BME280;47013;42.664;23.242;2023-04-15T11:25:27;93437.31;;;16.37;30.89
61128;BME280;47013;42.664;23.242;2023-04-15T11:27:53;93441.59;;;16.66;30.62
61128;BME280;47013;42.664;23.242;2023-04-15T11:30:22;93417.44;;;16.73;31.18
61128;BME280;47013;42.664;23.242;2023-04-15T11:32:48;93425.16;;;17.12;30.99
61128;BME280;47013;42.664;23.242;2023-04-15T11:35:15;93437.34;;;17.01;29.95
61128;BME280;47013;42.664;23.242;2023-04-15T11:37:40;93438.75;;;17.06;30.81
61128;BME280;47013;42.664;23.242;2023-04-15T11:40:06;93438.22;;;17.26;30.22
61128;BME280;47013;42.664;23.242;2023-04-15T11:42:31;93426.16;;;17.42;30.28
61128;BME280;47013;42.664;23.242;2023-04-15T11:45:09;93435.28;;;17.48;30.68
61128;BME280;47013;42.664;23.242;2023-04-15T11:47:35;93428.88;;;16.72;30.66
61128;BME280;47013;42.664;23.242;2023-04-15T11:50:16;93434.63;;;16.74;29.96
61128;BME280;47013;42.664;23.242;2023-04-15T11:52:58;93436.47;;;16.86;31.46
61128;BME280;47013;42.664;23.242;2023-04-15T11:55:24;93430.00;;;17.35;30.32
61128;BME280;47013;42.664;23.242;2023-04-15T11:57:50;93428.38;;;17.71;29.19
61128;BME280;47013;42.664;23.242;2023-04-15T12:00:15;93422.47;;;17.96;29.01
61128;BME280;47013;42.664;23.242;2023-04-15T12:02:41;93418.38;;;18.24;28.38
61128;BME280;47013;42.664;23.242;2023-04-15T12:05:07;93418.94;;;18.52;29.95
61128;BME280;47013;42.664;23.242;2023-04-15T12:07:33;93418.41;;;18.39;26.68
61128;BME280;47013;42.664;23.242;2023-04-15T12:09:58;93427.38;;;17.40;25.51
61128;BME280;47013;42.664;23.242;2023-04-15T12:12:27;93421.28;;;17.46;25.27
61128;BME280;47013;42.664;23.242;2023-04-15T12:14:52;93432.72;;;17.35;27.27
61128;BME280;47013;42.664;23.242;2023-04-15T12:17:18;93421.19;;;17.22;26.67
61128;BME280;47013;42.664;23.242;2023-04-15T12:19:43;93415.91;;;17.09;27.80
61128;BME280;47013;42.664;23.242;2023-04-15T12:22:13;93413.28;;;17.05;29.06
61128;BME280;47013;42.664;23.242;2023-04-15T12:24:39;93415.66;;;17.40;30.59
61128;BME280;47013;42.664;23.242;2023-04-15T12:27:06;93427.44;;;17.13;28.92
61128;BME280;47013;42.664;23.242;2023-04-15T12:29:32;93425.75;;;17.16;29.01
61128;BME280;47013;42.664;23.242;2023-04-15T12:32:03;93421.72;;;16.93;29.57
61128;BME280;47013;42.664;23.242;2023-04-15T12:34:29;93420.88;;;17.29;29.93
61128;BME280;47013;42.664;23.242;2023-04-15T12:36:55;93417.44;;;17.61;30.03
61128;BME280;47013;42.664;23.242;2023-04-15T12:39:24;93427.53;;;17.88;29.46
61128;BME280;47013;42.664;23.242;2023-04-15T12:41:50;93429.09;;;17.80;29.14
61128;BME280;47013;42.664;23.242;2023-04-15T12:44:16;93419.44;;;17.94;27.13
61128;BME280;47013;42.664;23.242;2023-04-15T12:46:41;93421.59;;;17.90;27.33
61128;BME280;47013;42.664;23.242;2023-04-15T12:49:07;93433.03;;;17.88;27.21
61128;BME280;47013;42.664;23.242;2023-04-15T12:51:33;93429.63;;;17.93;27.23
61128;BME280;47013;42.664;23.242;2023-04-15T12:53:58;93432.88;;;17.83;27.46
61128;BME280;47013;42.664;23.242;2023-04-15T12:56:23;93425.31;;;17.68;27.62
61128;BME280;47013;42.664;23.242;2023-04-15T12:58:51;93426.22;;;17.14;28.16
61128;BME280;47013;42.664;23.242;2023-04-15T13:01:16;93438.41;;;17.22;28.31